Time;durP1;ratioP1;P1;durP2;ratioP2;P2;SDS_P1;SDS_P2;PMS_P1;PMS_P2;Temp;Humidity;BMP_temperature;BMP_pressure;BME280_temperature;BME280_humidity;BME280_pressure;Samples;Min_cycle;Max_cycle;Signal;HPM_P1;HPM_P2
2022/10/17 00:02:00;;;;;;;12.52;11.23;;;15.10;99.90;;;;;;5033151;28;20442;-62
2022/10/17 00:04:26;;;;;;;12.55;11.23;;;15.00;99.90;;;;;;5033014;28;20391;-62
2022/10/17 00:06:51;;;;;;;11.52;10.30;;;15.00;99.90;;;;;;5032906;28;20099;-63
2022/10/17 00:09:17;;;;;;;16.15;14.45;;;15.00;99.90;;;;;;5032959;28;20022;-62
2022/10/17 00:11:43;;;;;;;14.63;13.07;;;14.90;99.90;;;;;;5032908;28;20387;-62
2022/10/17 00:14:08;;;;;;;14.45;11.68;;;14.90;99.90;;;;;;5033099;28;20391;-63
2022/10/17 00:16:36;;;;;;;12.48;10.85;;;14.80;99.90;;;;;;5032986;28;20022;-63
2022/10/17 00:19:03;;;;;;;14.10;12.63;;;14.80;99.90;;;;;;5033144;28;20033;-63
2022/10/17 00:21:29;;;;;;;12.05;10.27;;;14.90;99.90;;;;;;5033127;28;20454;-62
2022/10/17 00:23:54;;;;;;;13.65;11.18;;;14.90;99.90;;;;;;5032752;28;20029;-62
2022/10/17 00:26:21;;;;;;;10.15;9.15;;;14.90;99.90;;;;;;5032582;28;20534;-63
2022/10/17 00:28:48;;;;;;;12.48;11.18;;;14.80;99.90;;;;;;5032784;28;20088;-62
2022/10/17 00:31:15;;;;;;;15.40;13.05;;;14.80;99.90;;;;;;5034656;28;20021;-62
2022/10/17 00:33:42;;;;;;;12.18;10.88;;;14.80;99.90;;;;;;5036651;28;20024;-63
2022/10/17 00:36:14;;;;;;;12.43;11.18;;;14.70;99.90;;;;;;5036683;28;20022;-63
2022/10/17 00:38:41;;;;;;;10.48;9.45;;;14.60;99.90;;;;;;5036371;28;20049;-62
2022/10/17 00:41:09;;;;;;;10.35;9.20;;;14.60;99.90;;;;;;5036418;28;20048;-62
2022/10/17 00:43:53;;;;;;;9.90;8.90;;;14.60;99.90;;;;;;5036417;28;20104;-62
2022/10/17 00:46:20;;;;;;;10.38;9.30;;;14.70;99.90;;;;;;5036376;28;20027;-62
2022/10/17 00:48:49;;;;;;;9.93;8.95;;;14.60;99.90;;;;;;5036109;28;20093;-63
2022/10/17 00:51:16;;;;;;;8.68;7.85;;;14.60;99.90;;;;;;5036549;28;20379;-62
2022/10/17 00:53:42;;;;;;;12.38;11.18;;;14.60;99.90;;;;;;5036044;28;20021;-63
2022/10/17 00:56:08;;;;;;;11.18;9.75;;;14.60;99.90;;;;;;5036113;28;20025;-62
2022/10/17 00:58:33;;;;;;;11.70;10.27;;;14.50;99.90;;;;;;5036169;28;20026;-62
2022/10/17 01:01:01;;;;;;;10.70;9.60;;;14.50;99.90;;;;;;5036311;28;20080;-62
2022/10/17 01:03:27;;;;;;;9.77;8.75;;;14.50;99.90;;;;;;5035964;28;20022;-63
2022/10/17 01:05:52;;;;;;;13.23;11.13;;;14.50;99.90;;;;;;5035795;28;20022;-63
2022/10/17 01:08:18;;;;;;;11.48;10.18;;;14.40;99.90;;;;;;5035871;28;20037;-62
2022/10/17 01:10:56;;;;;;;9.80;8.68;;;14.40;99.90;;;;;;5035824;28;20029;-62
2022/10/17 01:13:21;;;;;;;8.57;7.68;;;14.40;99.90;;;;;;5035878;28;20097;-63
2022/10/17 01:16:05;;;;;;;10.70;9.60;;;14.30;99.90;;;;;;5036055;28;20112;-63
2022/10/17 01:18:30;;;;;;;10.35;9.30;;;14.30;99.90;;;;;;5035767;28;20021;-62
2022/10/17 01:21:30;;;;;;;8.18;7.38;;;14.30;99.90;;;;;;5035536;28;20464;-62
2022/10/17 01:24:22;;;;;;;9.43;8.20;;;14.30;99.90;;;;;;5035645;28;20026;-62
2022/10/17 01:27:08;;;;;;;14.02;11.23;;;14.20;99.90;;;;;;5005075;28;20096;-63
2022/10/17 01:29:45;;;;;;;12.82;11.20;;;14.20;99.90;;;;;;5018233;28;20515;-62
2022/10/17 01:32:20;;;;;;;11.93;9.85;;;14.10;99.90;;;;;;5035620;28;20024;-62
2022/10/17 01:35:17;;;;;;;10.25;9.32;;;14.00;99.90;;;;;;5035201;28;20032;-62
2022/10/17 01:37:52;;;;;;;9.45;8.43;;;14.00;99.90;;;;;;5031321;28;20042;-63
2022/10/17 01:40:43;;;;;;;9.98;8.95;;;14.00;99.90;;;;;;5035283;28;20021;-63
2022/10/17 01:43:20;;;;;;;11.73;10.02;;;14.00;99.90;;;;;;5034278;28;20088;-62
2022/10/17 01:46:02;;;;;;;12.63;10.88;;;14.00;99.90;;;;;;5035285;28;20041;-62
2022/10/17 01:48:34;;;;;;;11.55;8.95;;;14.00;99.90;;;;;;5035177;28;20097;-62
2022/10/17 01:51:08;;;;;;;9.82;8.82;;;13.90;99.90;;;;;;5035193;28;20028;-63
2022/10/17 01:53:40;;;;;;;10.70;9.45;;;13.90;99.90;;;;;;5035484;28;20021;-62
2022/10/17 01:56:08;;;;;;;12.30;11.10;;;13.90;99.90;;;;;;5035011;28;20492;-62
2022/10/17 01:58:50;;;;;;;10.10;9.20;;;13.80;99.90;;;;;;5035137;28;20025;-62
2022/10/17 02:01:17;;;;;;;9.07;8.18;;;13.80;99.90;;;;;;5035182;28;20041;-62
2022/10/17 02:03:45;;;;;;;10.65;9.25;;;13.80;99.90;;;;;;5035001;28;20387;-62
2022/10/17 02:06:11;;;;;;;7.65;6.93;;;13.80;99.90;;;;;;5034990;28;20565;-63
2022/10/17 02:08:54;;;;;;;8.85;7.80;;;13.80;99.90;;;;;;5034708;28;20069;-63
2022/10/17 02:11:25;;;;;;;8.57;7.68;;;13.80;99.90;;;;;;5034792;28;20379;-62
2022/10/17 02:14:43;;;;;;;8.60;7.70;;;13.70;99.90;;;;;;5034649;28;20029;-62
2022/10/17 02:17:53;;;;;;;7.82;7.00;;;13.80;99.90;;;;;;5011243;28;20037;-62
2022/10/17 02:20:22;;;;;;;6.93;6.13;;;13.70;99.90;;;;;;5021149;28;20033;-62
2022/10/17 02:22:55;;;;;;;8.07;7.30;;;13.70;99.90;;;;;;5034537;28;20025;-63
2022/10/17 02:25:32;;;;;;;7.53;6.78;;;13.70;99.90;;;;;;5034366;28;20095;-62
2022/10/17 02:28:06;;;;;;;8.82;7.65;;;13.70;99.90;;;;;;5034503;28;20033;-62
2022/10/17 02:30:53;;;;;;;8.02;7.22;;;13.70;99.90;;;;;;5034431;28;20029;-62
2022/10/17 02:33:37;;;;;;;11.63;10.45;;;13.70;99.90;;;;;;5034288;28;20052;-62
2022/10/17 02:36:09;;;;;;;9.13;7.90;;;13.60;99.90;;;;;;5034232;28;20021;-62
2022/10/17 02:38:36;;;;;;;8.80;7.47;;;13.50;99.90;;;;;;5034274;28;20029;-62
2022/10/17 02:41:04;;;;;;;7.50;6.70;;;13.50;99.90;;;;;;5034238;28;20018;-62
2022/10/17 02:43:30;;;;;;;11.45;8.05;;;13.50;99.90;;;;;;5034118;28;20024;-62
2022/10/17 02:45:56;;;;;;;8.85;7.95;;;13.50;99.90;;;;;;5032875;28;20415;-62
2022/10/17 02:48:42;;;;;;;7.75;6.95;;;13.50;99.90;;;;;;5033926;28;20100;-63
2022/10/17 02:51:20;;;;;;;9.25;8.20;;;13.50;99.90;;;;;;5034110;28;20071;-62
2022/10/17 02:54:10;;;;;;;7.40;6.80;;;13.50;99.90;;;;;;5033752;28;20387;-62
2022/10/17 02:56:49;;;;;;;7.95;7.15;;;13.40;99.90;;;;;;5034024;28;20029;-62
2022/10/17 02:59:19;;;;;;;8.93;7.70;;;13.30;99.90;;;;;;5033818;28;20387;-61
2022/10/17 03:01:45;;;;;;;7.60;6.53;;;13.30;99.90;;;;;;5033782;28;20383;-62
2022/10/17 03:04:13;;;;;;;9.05;6.55;;;13.30;99.90;;;;;;5033756;28;20077;-62
2022/10/17 03:06:40;;;;;;;7.72;6.93;;;13.30;99.90;;;;;;5033519;28;20031;-62
2022/10/17 03:09:06;;;;;;;6.25;5.65;;;13.30;99.90;;;;;;5033743;28;20028;-62
2022/10/17 03:11:32;;;;;;;6.43;5.80;;;13.30;99.90;;;;;;5033723;28;20025;-63
2022/10/17 03:13:58;;;;;;;6.40;5.80;;;13.30;99.90;;;;;;5033530;28;20488;-62
2022/10/17 03:16:24;;;;;;;6.85;6.15;;;13.30;99.90;;;;;;5033645;28;20032;-62
2022/10/17 03:18:49;;;;;;;6.80;6.10;;;13.20;99.90;;;;;;5033634;28;20044;-63
2022/10/17 03:21:15;;;;;;;7.90;7.10;;;13.20;99.90;;;;;;5033367;28;20365;-62
2022/10/17 03:23:41;;;;;;;9.43;6.97;;;13.20;99.90;;;;;;5033459;28;20472;-63
2022/10/17 03:26:07;;;;;;;9.23;8.32;;;13.20;99.90;;;;;;5033285;28;20056;-63
2022/10/17 03:28:33;;;;;;;8.57;7.75;;;13.10;99.90;;;;;;5033365;28;20040;-62
2022/10/17 03:30:58;;;;;;;8.43;7.18;;;13.00;99.90;;;;;;5033379;28;20446;-62
2022/10/17 03:33:24;;;;;;;8.55;7.15;;;13.00;99.90;;;;;;5033477;28;20105;-62
2022/10/17 03:35:50;;;;;;;8.38;7.60;;;13.00;99.90;;;;;;5033324;28;20048;-62
2022/10/17 03:38:15;;;;;;;7.00;6.30;;;12.90;99.90;;;;;;5033309;28;20026;-63
2022/10/17 03:40:41;;;;;;;6.65;6.05;;;12.90;99.90;;;;;;5033227;28;20028;-63
2022/10/17 03:43:06;;;;;;;7.35;6.65;;;12.90;99.90;;;;;;5033288;28;20104;-63
2022/10/17 03:45:32;;;;;;;7.72;6.93;;;12.90;99.90;;;;;;5032995;28;20022;-63
2022/10/17 03:47:58;;;;;;;7.47;6.68;;;12.90;99.90;;;;;;5033274;28;20112;-63
2022/10/17 03:50:24;;;;;;;6.53;5.93;;;12.90;99.90;;;;;;5033487;28;20075;-62
2022/10/17 03:52:50;;;;;;;8.38;7.07;;;12.90;99.90;;;;;;5033087;28;20053;-63
2022/10/17 03:55:16;;;;;;;7.95;7.03;;;12.90;99.90;;;;;;5033328;28;20056;-63
2022/10/17 03:57:42;;;;;;;7.18;6.45;;;12.90;99.90;;;;;;5033201;28;20561;-63
2022/10/17 04:00:08;;;;;;;6.95;6.25;;;12.90;99.90;;;;;;5033100;28;20022;-63
2022/10/17 04:02:34;;;;;;;7.25;6.53;;;12.90;99.90;;;;;;5033392;28;20057;-63
2022/10/17 04:05:00;;;;;;;7.80;7.00;;;12.90;99.90;;;;;;5033189;28;20053;-63
2022/10/17 04:07:26;;;;;;;7.32;6.63;;;12.90;99.90;;;;;;5036830;28;20125;-63
2022/10/17 04:09:51;;;;;;;7.00;6.35;;;12.90;99.90;;;;;;5037610;28;20021;-63
2022/10/17 04:12:17;;;;;;;7.35;6.65;;;12.80;99.90;;;;;;5035797;28;20021;-63
2022/10/17 04:14:43;;;;;;;6.53;5.80;;;12.80;99.90;;;;;;5036730;28;20029;-63
2022/10/17 04:17:09;;;;;;;6.65;5.93;;;12.90;99.90;;;;;;5036879;28;20502;-65
2022/10/17 04:19:34;;;;;;;6.65;6.03;;;12.80;99.90;;;;;;5036869;28;20021;-63
2022/10/17 04:22:02;;;;;;;6.00;5.40;;;12.80;99.90;;;;;;5037236;28;20033;-63
2022/10/17 04:24:27;;;;;;;5.53;5.03;;;12.80;99.90;;;;;;5036915;28;20033;-63
2022/10/17 04:26:53;;;;;;;6.35;5.75;;;12.80;99.90;;;;;;5036552;28;20049;-63
2022/10/17 04:29:19;;;;;;;6.35;5.75;;;12.70;99.90;;;;;;5036557;28;20467;-63
2022/10/17 04:31:45;;;;;;;7.40;6.70;;;12.70;99.90;;;;;;5036908;28;20052;-63
2022/10/17 04:34:13;;;;;;;9.40;6.70;;;12.70;99.90;;;;;;5037128;28;20045;-62
2022/10/17 04:36:39;;;;;;;8.15;6.15;;;12.70;99.90;;;;;;5036494;28;20076;-63
2022/10/17 04:39:04;;;;;;;6.00;5.50;;;12.60;99.90;;;;;;5036462;28;20029;-63
2022/10/17 04:41:30;;;;;;;7.38;6.68;;;12.60;99.90;;;;;;5036589;28;20026;-63
2022/10/17 04:43:56;;;;;;;7.13;6.40;;;12.50;99.90;;;;;;5036286;28;20105;-63
2022/10/17 04:46:22;;;;;;;8.43;7.50;;;12.50;99.90;;;;;;5036460;28;20108;-63
2022/10/17 04:48:48;;;;;;;8.77;7.88;;;12.50;99.90;;;;;;5018493;28;20079;-63
2022/10/17 04:51:16;;;;;;;9.35;8.00;;;12.50;99.90;;;;;;5036475;28;20121;-62
2022/10/17 04:53:43;;;;;;;9.35;8.45;;;12.50;99.90;;;;;;5036484;28;20025;-63
2022/10/17 04:56:16;;;;;;;11.68;10.48;;;12.50;99.90;;;;;;5033155;28;20033;-63
2022/10/17 04:58:43;;;;;;;;;;;12.40;99.90;;;;;;5022466;28;20084;-63
2022/10/17 05:01:11;;;;;;;8.45;7.43;;;12.50;99.90;;;;;;5035709;28;20445;-63
2022/10/17 05:03:36;;;;;;;7.93;7.13;;;12.40;99.90;;;;;;5035698;28;20033;-63
2022/10/17 05:06:04;;;;;;;6.88;6.18;;;12.50;99.90;;;;;;5034716;28;20022;-62
2022/10/17 05:08:30;;;;;;;6.47;5.68;;;12.40;99.90;;;;;;5035565;28;20087;-62
2022/10/17 05:10:55;;;;;;;10.98;8.55;;;12.40;99.90;;;;;;5035854;28;20103;-64
2022/10/17 05:13:21;;;;;;;10.45;9.02;;;12.40;99.90;;;;;;5035217;28;20030;-62
2022/10/17 05:15:47;;;;;;;16.58;13.95;;;12.40;99.90;;;;;;5035650;28;20025;-62
2022/10/17 05:18:12;;;;;;;14.27;11.25;;;12.40;99.90;;;;;;5034924;28;20030;-62
2022/10/17 05:20:38;;;;;;;12.45;10.75;;;12.40;99.90;;;;;;5033763;28;20484;-62
2022/10/17 05:23:04;;;;;;;11.82;10.52;;;12.40;99.90;;;;;;5033759;28;20021;-63
2022/10/17 05:25:29;;;;;;;13.07;11.43;;;12.40;99.90;;;;;;5033320;28;20397;-63
2022/10/17 05:27:55;;;;;;;14.82;11.77;;;12.40;99.90;;;;;;5031544;28;20669;-63
2022/10/17 05:30:21;;;;;;;11.65;10.45;;;12.40;99.90;;;;;;5033035;28;20108;-62
2022/10/17 05:32:46;;;;;;;10.63;9.63;;;12.40;99.90;;;;;;5033429;28;20092;-63
2022/10/17 05:35:12;;;;;;;12.88;11.60;;;12.40;99.90;;;;;;5034177;28;20028;-63
2022/10/17 05:37:38;;;;;;;12.27;11.02;;;12.40;99.90;;;;;;5033441;28;20032;-63
2022/10/17 05:40:04;;;;;;;11.85;10.25;;;12.40;99.90;;;;;;5034223;28;20033;-62
2022/10/17 05:42:30;;;;;;;10.88;9.70;;;12.40;99.90;;;;;;5033805;28;20022;-63
2022/10/17 05:44:55;;;;;;;10.68;9.65;;;12.50;99.90;;;;;;5034135;28;20140;-62
2022/10/17 05:47:21;;;;;;;9.48;8.68;;;12.50;99.90;;;;;;5025710;28;20041;-62
2022/10/17 05:49:46;;;;;;;8.55;7.68;;;12.60;99.90;;;;;;5023583;28;20021;-64
2022/10/17 05:52:12;;;;;;;12.10;10.40;;;12.60;99.90;;;;;;5025312;28;20100;-63
2022/10/17 05:54:38;;;;;;;12.32;10.88;;;12.60;99.90;;;;;;5024399;28;20073;-63
2022/10/17 05:57:03;;;;;;;12.55;11.25;;;12.60;99.90;;;;;;5033709;28;20053;-64
2022/10/17 05:59:29;;;;;;;13.80;12.30;;;12.70;99.90;;;;;;5034806;28;20026;-62
2022/10/17 06:01:55;;;;;;;15.25;12.60;;;12.70;99.90;;;;;;5011391;28;20565;-63
2022/10/17 06:04:20;;;;;;;21.48;18.48;;;12.70;99.90;;;;;;5024714;28;20026;-62
2022/10/17 06:06:46;;;;;;;18.85;16.85;;;12.70;99.90;;;;;;5028931;28;20025;-62
2022/10/17 06:09:12;;;;;;;18.98;16.42;;;12.70;99.90;;;;;;5031080;28;20378;-62
2022/10/17 06:11:38;;;;;;;15.80;14.20;;;12.70;99.90;;;;;;5028592;28;20267;-62
2022/10/17 06:14:03;;;;;;;14.50;13.02;;;12.70;99.90;;;;;;5027602;28;20029;-62
2022/10/17 06:16:29;;;;;;;18.75;15.93;;;12.70;99.90;;;;;;5022423;28;20483;-62
2022/10/17 06:18:55;;;;;;;18.23;15.95;;;12.80;99.90;;;;;;5024474;28;20105;-61
2022/10/17 06:21:24;;;;;;;14.07;12.43;;;12.80;99.90;;;;;;5025537;28;20029;-62
2022/10/17 06:23:50;;;;;;;14.57;12.55;;;12.80;99.90;;;;;;5017982;28;20018;-62
2022/10/17 06:26:15;;;;;;;15.95;11.88;;;12.90;99.90;;;;;;5029265;28;20045;-61
2022/10/17 06:28:41;;;;;;;11.73;10.43;;;13.00;99.90;;;;;;5028685;28;20040;-62
2022/10/17 06:31:09;;;;;;;12.40;10.65;;;13.10;99.90;;;;;;5029579;28;20018;-61
2022/10/17 06:33:35;;;;;;;10.60;9.48;;;13.10;99.90;;;;;;5019732;28;20080;-63
2022/10/17 06:36:02;;;;;;;10.60;9.15;;;13.10;99.90;;;;;;5027843;28;20032;-62
2022/10/17 06:38:28;;;;;;;20.75;18.27;;;13.10;99.90;;;;;;5016175;28;20524;-62
2022/10/17 06:40:56;;;;;;;20.95;18.75;;;13.00;99.90;;;;;;5030758;28;20060;-61
2022/10/17 06:43:21;;;;;;;26.17;22.88;;;14.70;99.90;;;;;;5026595;28;20022;-61
2022/10/17 06:45:47;;;;;;;33.05;29.40;;;17.60;99.90;;;;;;5031183;28;20056;-61
2022/10/17 06:48:13;;;;;;;43.83;38.53;;;19.90;81.50;;;;;;5031614;28;20479;-62
2022/10/17 06:50:40;;;;;;;40.45;36.17;;;21.60;68.40;;;;;;5032831;28;20026;-63
2022/10/17 06:53:06;;;;;;;49.95;44.55;;;22.90;61.10;;;;;;5024212;28;20143;-63
2022/10/17 06:55:31;;;;;;;43.25;38.85;;;23.70;57.00;;;;;;5020167;28;20124;-64
2022/10/17 06:57:57;;;;;;;42.50;38.17;;;24.20;55.70;;;;;;5018933;28;20049;-62
2022/10/17 07:00:25;;;;;;;35.78;32.33;;;25.00;53.70;;;;;;5016732;28;20022;-64
2022/10/17 07:02:51;;;;;;;31.20;28.10;;;26.00;51.30;;;;;;5006891;28;20029;-63
2022/10/17 07:05:26;;;;;;;30.80;27.65;;;26.60;50.00;;;;;;5025628;28;20031;-63
2022/10/17 07:07:53;;;;;;;29.02;26.08;;;27.10;48.30;;;;;;5023605;28;20034;-62
2022/10/17 07:10:18;;;;;;;27.08;24.25;;;27.70;47.40;;;;;;5018841;28;20385;-63
2022/10/17 07:12:44;;;;;;;26.65;24.05;;;28.10;46.60;;;;;;5017018;28;20037;-63
2022/10/17 07:15:10;;;;;;;27.85;24.92;;;28.30;46.10;;;;;;5021354;28;20058;-63
2022/10/17 07:17:36;;;;;;;28.50;25.30;;;28.60;46.00;;;;;;5028875;28;20025;-60
2022/10/17 07:20:02;;;;;;;23.80;21.48;;;29.00;46.20;;;;;;5018128;28;20022;-62
2022/10/17 07:22:28;;;;;;;20.38;18.48;;;29.60;44.50;;;;;;5020882;28;20034;-63
2022/10/17 07:24:53;;;;;;;16.35;14.85;;;30.20;44.00;;;;;;5019080;28;20030;-63
2022/10/17 07:27:19;;;;;;;14.00;12.70;;;30.50;42.90;;;;;;5018769;28;20029;-62
2022/10/17 07:29:44;;;;;;;13.00;11.60;;;30.70;42.80;;;;;;5020593;28;20030;-62
2022/10/17 07:32:10;;;;;;;12.00;10.85;;;31.30;41.70;;;;;;5018993;28;20542;-63
2022/10/17 07:34:36;;;;;;;12.30;11.18;;;31.40;41.90;;;;;;5026349;28;20356;-62
2022/10/17 07:37:02;;;;;;;11.98;10.85;;;31.30;41.70;;;;;;5021965;28;20486;-62
2022/10/17 07:39:28;;;;;;;12.40;11.02;;;31.50;41.40;;;;;;5023045;28;20032;-62
2022/10/17 07:41:54;;;;;;;10.50;9.60;;;32.10;40.80;;;;;;5024797;28;20033;-63
2022/10/17 07:44:20;;;;;;;10.48;9.48;;;32.40;40.20;;;;;;5028442;28;20025;-64
2022/10/17 07:46:45;;;;;;;8.77;7.97;;;32.70;40.50;;;;;;5028017;28;20400;-64
2022/10/17 07:49:11;;;;;;;9.23;8.40;;;33.20;39.30;;;;;;5022160;28;20479;-62
2022/10/17 07:51:37;;;;;;;10.85;9.05;;;33.40;38.40;;;;;;5021039;28;20130;-63
2022/10/17 07:54:05;;;;;;;10.88;9.77;;;33.70;38.00;;;;;;5026622;28;20073;-62
2022/10/17 07:56:31;;;;;;;12.27;11.02;;;33.20;38.30;;;;;;5025198;28;20022;-64
2022/10/17 07:58:57;;;;;;;10.98;9.98;;;33.00;38.40;;;;;;5026516;28;20029;-62
2022/10/17 08:01:24;;;;;;;11.75;10.65;;;33.10;39.00;;;;;;5021318;28;20061;-63
2022/10/17 08:03:50;;;;;;;20.48;18.48;;;33.40;38.90;;;;;;5022380;28;20033;-61
2022/10/17 08:06:16;;;;;;;15.50;14.10;;;33.40;37.70;;;;;;5023851;28;20026;-60
2022/10/17 08:08:43;;;;;;;17.15;15.18;;;32.70;39.10;;;;;;5029454;28;20025;-60
2022/10/17 08:11:11;;;;;;;15.05;12.98;;;32.50;39.70;;;;;;5028342;28;20399;-59
2022/10/17 08:13:37;;;;;;;12.32;11.18;;;32.50;39.30;;;;;;5021297;28;20022;-60
2022/10/17 08:16:08;;;;;;;12.00;10.80;;;33.00;39.10;;;;;;5020588;28;20057;-62
2022/10/17 08:18:39;;;;;;;11.65;10.40;;;33.20;39.10;;;;;;5019596;28;20022;-62
2022/10/17 08:21:07;;;;;;;11.57;10.23;;;33.10;38.40;;;;;;5027532;28;20490;-64
2022/10/17 08:23:35;;;;;;;13.98;12.57;;;31.40;39.60;;;;;;5026913;28;20036;-63
2022/10/17 08:26:02;;;;;;;12.65;11.45;;;28.50;42.70;;;;;;5018447;28;20089;-61
2022/10/17 08:28:28;;;;;;;13.68;12.38;;;26.30;46.20;;;;;;5020347;28;20060;-58
2022/10/17 08:31:02;;;;;;;13.43;12.02;;;24.30;49.90;;;;;;5025464;28;20383;-62
2022/10/17 08:33:27;;;;;;;12.27;11.07;;;23.50;51.90;;;;;;5016709;28;20071;-62
2022/10/17 08:35:53;;;;;;;10.30;9.40;;;23.20;52.90;;;;;;5018166;28;20510;-64
2022/10/17 08:38:19;;;;;;;11.02;9.93;;;22.70;54.30;;;;;;5011002;28;20436;-63
2022/10/17 08:40:48;;;;;;;11.13;10.13;;;22.20;56.50;;;;;;5022566;28;20031;-62
2022/10/17 08:43:27;;;;;;;14.05;10.38;;;22.20;57.10;;;;;;5025198;28;20088;-62
2022/10/17 08:46:02;;;;;;;11.73;10.60;;;22.10;57.40;;;;;;5006932;28;20478;-62
2022/10/17 08:48:33;;;;;;;13.82;12.52;;;22.00;58.10;;;;;;5019506;28;20488;-62
2022/10/17 08:51:13;;;;;;;12.93;11.63;;;22.00;59.40;;;;;;5019981;28;20025;-61
2022/10/17 08:53:48;;;;;;;12.77;11.50;;;21.80;59.70;;;;;;5022230;28;20045;-60
2022/10/17 08:56:36;;;;;;;13.75;12.20;;;21.80;61.00;;;;;;5015793;28;20032;-60
2022/10/17 08:59:09;;;;;;;12.85;11.55;;;21.80;61.30;;;;;;5019210;28;20055;-59
2022/10/17 09:01:47;;;;;;;;;;;21.80;62.20;;;;;;5020966;28;20037;-62
2022/10/17 09:04:43;;;;;;;13.98;11.63;;;21.50;64.20;;;;;;5017007;28;19909;-61
2022/10/17 09:07:26;;;;;;;12.35;11.07;;;21.20;66.80;;;;;;5006638;28;20176;-64
2022/10/17 09:09:58;;;;;;;15.10;12.32;;;21.10;69.20;;;;;;5027701;28;20036;-64
2022/10/17 09:12:34;;;;;;;13.60;11.18;;;21.20;67.70;;;;;;5029761;28;20083;-61
2022/10/17 09:15:18;;;;;;;12.13;10.73;;;21.00;70.20;;;;;;5012440;28;20041;-61
2022/10/17 09:18:12;;;;;;;10.63;9.60;;;21.10;70.50;;;;;;5011159;28;20022;-62
2022/10/17 09:20:52;;;;;;;10.57;9.55;;;21.30;69.20;;;;;;4993449;28;20045;-63
2022/10/17 09:23:31;;;;;;;11.35;10.18;;;21.50;69.20;;;;;;5026790;28;20454;-61
2022/10/17 09:26:01;;;;;;;10.13;9.13;;;21.70;71.50;;;;;;5008253;28;20053;-63
2022/10/17 09:28:34;;;;;;;9.98;8.95;;;22.30;77.80;;;;;;5003530;28;20030;-66
2022/10/17 09:31:04;;;;;;;9.98;8.98;;;22.80;69.60;;;;;;5006239;28;20030;-64
2022/10/17 09:33:47;;;;;;;9.45;8.55;;;23.40;63.40;;;;;;5003508;28;20105;-63
2022/10/17 09:36:34;;;;;;;9.93;8.90;;;23.80;60.10;;;;;;5001853;28;20026;-64
2022/10/17 09:39:23;;;;;;;10.25;9.25;;;24.20;59.30;;;;;;4988089;28;20488;-63
2022/10/17 09:41:51;;;;;;;9.45;8.57;;;24.50;59.00;;;;;;4985790;28;20084;-63
2022/10/17 09:44:21;;;;;;;11.15;9.90;;;24.70;58.40;;;;;;5006795;28;20480;-62
2022/10/17 09:47:05;;;;;;;9.88;8.93;;;25.10;56.40;;;;;;5014747;28;20056;-63
2022/10/17 09:49:36;;;;;;;9.65;8.80;;;25.30;57.60;;;;;;5012005;28;20344;-62
2022/10/17 09:52:16;;;;;;;9.32;8.52;;;25.70;56.60;;;;;;5003756;28;20546;-61
2022/10/17 09:54:46;;;;;;;9.05;8.25;;;26.20;55.10;;;;;;5002287;28;20071;-60
2022/10/17 09:57:14;;;;;;;9.38;8.50;;;26.50;53.50;;;;;;5007246;28;20369;-61
2022/10/17 09:59:43;;;;;;;8.05;7.35;;;26.80;53.90;;;;;;5014956;28;20092;-62
2022/10/17 10:02:17;;;;;;;9.05;8.18;;;27.20;53.30;;;;;;5013481;28;20080;-59
2022/10/17 10:05:04;;;;;;;8.98;8.18;;;27.40;52.40;;;;;;5012384;28;20384;-61
2022/10/17 10:07:33;;;;;;;9.75;8.75;;;27.70;51.50;;;;;;5013697;28;20492;-62
2022/10/17 10:10:01;;;;;;;9.52;8.65;;;27.70;50.60;;;;;;5014042;28;20484;-60
2022/10/17 10:13:05;;;;;;;8.20;7.47;;;27.80;50.60;;;;;;5011306;28;20396;-61
2022/10/17 10:15:46;;;;;;;8.15;7.45;;;28.00;50.60;;;;;;4996912;28;20034;-60
2022/10/17 10:18:23;;;;;;;8.05;7.35;;;28.30;50.60;;;;;;4978110;28;20027;-60
2022/10/17 10:21:13;;;;;;;7.13;6.43;;;28.40;48.70;;;;;;4995431;28;20022;-60
2022/10/17 10:23:44;;;;;;;8.95;6.10;;;28.70;49.30;;;;;;4994401;28;20424;-61
2022/10/17 10:26:25;;;;;;;7.00;6.40;;;28.90;48.10;;;;;;4995112;28;20034;-60
2022/10/17 10:29:03;;;;;;;6.10;5.70;;;29.20;49.30;;;;;;4994137;28;20030;-60
2022/10/17 10:31:36;;;;;;;5.35;4.95;;;29.20;47.00;;;;;;4993931;28;20037;-60
2022/10/17 10:34:24;;;;;;;5.68;5.18;;;29.30;48.40;;;;;;4993871;28;20053;-61
2022/10/17 10:36:58;;;;;;;5.53;5.00;;;29.50;47.50;;;;;;4993266;28;20022;-61
2022/10/17 10:39:39;;;;;;;6.85;6.25;;;29.50;47.70;;;;;;4991998;28;20026;-63
2022/10/17 10:42:17;;;;;;;6.20;5.60;;;29.20;45.50;;;;;;4992876;28;20460;-62
2022/10/17 10:44:43;;;;;;;6.38;5.88;;;28.80;47.50;;;;;;4993646;28;20481;-62
2022/10/17 10:47:18;;;;;;;5.15;4.80;;;28.80;48.00;;;;;;4993229;28;20032;-62
2022/10/17 10:49:44;;;;;;;5.00;4.60;;;29.20;49.20;;;;;;4992433;28;20018;-62
2022/10/17 10:52:25;;;;;;;5.82;5.28;;;29.50;46.70;;;;;;4993235;28;20022;-61
2022/10/17 10:55:05;;;;;;;7.65;4.50;;;29.80;45.30;;;;;;4998691;28;20091;-62
2022/10/17 10:57:35;;;;;;;4.70;4.30;;;30.10;50.10;;;;;;4998388;28;20042;-63
2022/10/17 11:00:14;;;;;;;5.05;4.65;;;30.20;48.20;;;;;;5001757;28;20345;-62
2022/10/17 11:02:48;;;;;;;5.25;4.85;;;30.40;46.50;;;;;;4984586;28;20420;-62
2022/10/17 11:05:33;;;;;;;4.60;4.20;;;30.60;45.70;;;;;;5000976;28;20472;-62
2022/10/17 11:08:25;;;;;;;5.20;4.80;;;30.60;47.70;;;;;;5005488;28;20038;-62
2022/10/17 11:10:51;;;;;;;5.72;5.22;;;30.50;46.90;;;;;;5002083;28;20054;-63
2022/10/17 11:13:22;;;;;;;4.63;4.32;;;30.50;44.80;;;;;;5002468;28;20127;-62
2022/10/17 11:15:52;;;;;;;4.20;3.90;;;30.70;45.50;;;;;;5005925;28;20022;-62
2022/10/17 11:18:34;;;;;;;5.10;4.63;;;30.90;44.00;;;;;;5008401;28;20037;-62
2022/10/17 11:21:11;;;;;;;5.53;5.13;;;31.00;45.10;;;;;;5004254;28;20022;-61
2022/10/17 11:23:47;;;;;;;4.95;4.65;;;31.20;43.60;;;;;;5011567;28;20034;-61
2022/10/17 11:26:37;;;;;;;5.40;5.00;;;31.40;43.30;;;;;;5021706;28;20099;-62
2022/10/17 11:29:06;;;;;;;7.13;4.90;;;31.60;43.20;;;;;;5010500;28;20037;-62
2022/10/17 11:31:39;;;;;;;4.60;4.22;;;31.60;42.40;;;;;;5022353;28;20524;-61
2022/10/17 11:34:40;;;;;;;4.45;4.07;;;31.70;43.60;;;;;;5014089;28;20034;-61
2022/10/17 11:37:14;;;;;;;4.38;4.00;;;31.60;45.80;;;;;;4989743;28;20503;-61
2022/10/17 11:39:43;;;;;;;5.30;4.80;;;31.50;44.10;;;;;;5011748;28;20030;-61
2022/10/17 11:42:14;;;;;;;4.93;4.53;;;31.60;45.70;;;;;;5011352;28;20033;-61
2022/10/17 11:44:41;;;;;;;4.63;4.32;;;31.60;43.20;;;;;;5011976;28;20315;-62
2022/10/17 11:47:22;;;;;;;4.32;4.03;;;31.60;43.30;;;;;;5010664;28;20056;-62
2022/10/17 11:49:52;;;;;;;4.10;3.80;;;31.80;42.30;;;;;;5019428;28;20036;-62
2022/10/17 11:52:24;;;;;;;3.80;3.60;;;32.00;47.30;;;;;;5026210;28;20442;-62
2022/10/17 11:54:55;;;;;;;4.20;3.90;;;32.10;42.80;;;;;;5031902;28;20076;-63
2022/10/17 11:57:26;;;;;;;4.75;4.20;;;32.00;42.00;;;;;;5031715;28;20029;-62
2022/10/17 12:00:23;;;;;;;6.13;4.80;;;31.60;42.00;;;;;;5031824;28;20021;-62
2022/10/17 12:03:10;;;;;;;4.50;4.20;;;31.40;41.60;;;;;;5032387;28;20479;-62
2022/10/17 12:05:51;;;;;;;4.18;3.80;;;31.10;44.90;;;;;;5033057;28;20025;-62
2022/10/17 12:08:45;;;;;;;4.72;4.32;;;31.00;45.90;;;;;;5018270;28;20718;-61
2022/10/17 12:11:37;;;;;;;4.70;4.40;;;30.90;42.80;;;;;;4976407;28;20066;-62
2022/10/17 12:14:41;;;;;;;4.67;4.27;;;30.70;43.20;;;;;;4973507;28;20038;-63
2022/10/17 12:17:38;;;;;;;4.00;3.80;;;31.00;42.80;;;;;;5011372;28;20256;-62
2022/10/17 12:20:31;;;;;;;4.22;3.92;;;31.50;42.80;;;;;;5011983;28;20543;-64
2022/10/17 12:23:12;;;;;;;3.70;3.40;;;31.80;45.50;;;;;;5009045;28;20050;-63
2022/10/17 12:25:54;;;;;;;3.83;3.20;;;31.80;44.70;;;;;;5028095;28;20053;-64
2022/10/17 12:28:45;;;;;;;3.75;3.45;;;31.80;44.70;;;;;;5033045;28;20092;-62
2022/10/17 12:31:26;;;;;;;3.22;3.03;;;31.80;45.00;;;;;;5015901;28;20080;-62
2022/10/17 12:34:03;;;;;;;3.75;3.45;;;31.90;44.10;;;;;;5033323;28;20021;-63
2022/10/17 12:36:28;;;;;;;3.35;3.10;;;32.00;44.00;;;;;;5034524;28;20033;-61
2022/10/17 12:39:00;;;;;;;4.22;3.80;;;32.10;42.60;;;;;;5034193;28;20018;-60
2022/10/17 12:41:46;;;;;;;3.83;3.53;;;31.80;41.30;;;;;;5035546;28;20029;-62
2022/10/17 12:44:20;;;;;;;3.45;3.25;;;31.40;43.70;;;;;;5019048;28;20657;-61
2022/10/17 12:46:58;;;;;;;3.40;3.10;;;31.60;44.80;;;;;;5036243;28;20087;-62
2022/10/17 12:49:44;;;;;;;3.40;3.20;;;31.80;43.80;;;;;;5036094;28;20030;-62
2022/10/17 12:52:33;;;;;;;5.25;3.25;;;31.90;43.70;;;;;;5035513;28;20033;-60
2022/10/17 12:55:02;;;;;;;3.60;3.30;;;31.90;43.00;;;;;;5034366;28;20057;-62
2022/10/17 12:57:40;;;;;;;3.47;3.17;;;32.10;43.50;;;;;;5034478;28;20123;-61
2022/10/17 13:00:18;;;;;;;3.70;3.40;;;32.20;44.00;;;;;;5035031;28;20148;-61
2022/10/17 13:02:45;;;;;;;3.35;3.15;;;32.20;43.70;;;;;;5035127;28;20384;-63